sensor_id;sensor_type;location;lat;lon;timestamp;temperature;humidity
7846;DHT22;3968;51.424;6.788;2023-06-26T00:04:43;23.00;99.90
7846;DHT22;3968;51.424;6.788;2023-06-26T00:07:09;23.10;99.90
7846;DHT22;3968;51.424;6.788;2023-06-26T00:09:35;22.90;99.90
7846;DHT22;3968;51.424;6.788;2023-06-26T00:12:00;23.00;99.90
7846;DHT22;3968;51.424;6.788;2023-06-26T00:14:26;22.60;99.90
7846;DHT22;3968;51.424;6.788;2023-06-26T00:16:52;22.90;99.90
7846;DHT22;3968;51.424;6.788;2023-06-26T00:19:18;22.50;99.90
7846;DHT22;3968;51.424;6.788;2023-06-26T00:24:12;22.70;99.90
7846;DHT22;3968;51.424;6.788;2023-06-26T00:38:49;22.60;99.90
7846;DHT22;3968;51.424;6.788;2023-06-26T00:41:15;22.50;99.90
7846;DHT22;3968;51.424;6.788;2023-06-26T00:46:09;22.30;99.90
7846;DHT22;3968;51.424;6.788;2023-06-26T00:48:35;22.40;99.90
7846;DHT22;3968;51.424;6.788;2023-06-26T00:51:01;22.50;99.90
7846;DHT22;3968;51.424;6.788;2023-06-26T00:53:27;22.80;99.90
7846;DHT22;3968;51.424;6.788;2023-06-26T00:55:53;22.10;99.90
7846;DHT22;3968;51.424;6.788;2023-06-26T00:58:21;22.40;99.90
7846;DHT22;3968;51.424;6.788;2023-06-26T01:00:47;22.10;99.90
7846;DHT22;3968;51.424;6.788;2023-06-26T01:12:57;22.20;99.90
7846;DHT22;3968;51.424;6.788;2023-06-26T01:17:50;22.20;99.90
7846;DHT22;3968;51.424;6.788;2023-06-26T01:20:17;22.50;99.90
7846;DHT22;3968;51.424;6.788;2023-06-26T01:23:07;22.30;99.90
7846;DHT22;3968;51.424;6.788;2023-06-26T01:28:06;22.40;99.90
7846;DHT22;3968;51.424;6.788;2023-06-26T01:30:34;22.30;99.90
7846;DHT22;3968;51.424;6.788;2023-06-26T01:33:01;22.10;99.90
7846;DHT22;3968;51.424;6.788;2023-06-26T01:35:27;22.30;99.90
7846;DHT22;3968;51.424;6.788;2023-06-26T01:45:26;22.20;99.90
7846;DHT22;3968;51.424;6.788;2023-06-26T01:50:28;21.70;99.90
7846;DHT22;3968;51.424;6.788;2023-06-26T01:53:16;22.00;99.90
7846;DHT22;3968;51.424;6.788;2023-06-26T01:58:20;22.10;99.90
7846;DHT22;3968;51.424;6.788;2023-06-26T02:00:47;22.10;99.90
7846;DHT22;3968;51.424;6.788;2023-06-26T02:03:13;21.40;99.90
7846;DHT22;3968;51.424;6.788;2023-06-26T02:08:04;21.40;99.90
7846;DHT22;3968;51.424;6.788;2023-06-26T02:10:30;22.00;99.90
7846;DHT22;3968;51.424;6.788;2023-06-26T02:15:22;22.00;99.90
7846;DHT22;3968;51.424;6.788;2023-06-26T02:17:47;21.70;99.90
7846;DHT22;3968;51.424;6.788;2023-06-26T02:20:14;21.30;99.90
7846;DHT22;3968;51.424;6.788;2023-06-26T02:25:07;21.70;99.90
7846;DHT22;3968;51.424;6.788;2023-06-26T03:21:08;21.40;99.90
7846;DHT22;3968;51.424;6.788;2023-06-26T03:23:34;21.70;99.90
7846;DHT22;3968;51.424;6.788;2023-06-26T03:28:26;21.90;99.90
7846;DHT22;3968;51.424;6.788;2023-06-26T03:30:51;21.60;99.90
7846;DHT22;3968;51.424;6.788;2023-06-26T03:38:09;21.90;99.90
7846;DHT22;3968;51.424;6.788;2023-06-26T03:43:01;22.00;99.90
7846;DHT22;3968;51.424;6.788;2023-06-26T03:45:27;22.10;99.90
7846;DHT22;3968;51.424;6.788;2023-06-26T03:47:52;22.20;99.90
7846;DHT22;3968;51.424;6.788;2023-06-26T03:50:18;22.10;99.90
7846;DHT22;3968;51.424;6.788;2023-06-26T03:52:44;22.10;99.90
7846;DHT22;3968;51.424;6.788;2023-06-26T03:55:10;22.30;99.90
7846;DHT22;3968;51.424;6.788;2023-06-26T04:00:02;22.20;99.90
7846;DHT22;3968;51.424;6.788;2023-06-26T04:02:34;22.10;99.90
7846;DHT22;3968;51.424;6.788;2023-06-26T04:07:26;22.20;99.90
7846;DHT22;3968;51.424;6.788;2023-06-26T04:09:51;22.60;99.90
7846;DHT22;3968;51.424;6.788;2023-06-26T04:14:43;22.00;99.90
7846;DHT22;3968;51.424;6.788;2023-06-26T04:17:08;22.30;99.90
7846;DHT22;3968;51.424;6.788;2023-06-26T04:19:34;22.80;99.90
7846;DHT22;3968;51.424;6.788;2023-06-26T04:22:01;22.60;99.90
7846;DHT22;3968;51.424;6.788;2023-06-26T04:31:51;22.40;99.90
7846;DHT22;3968;51.424;6.788;2023-06-26T04:34:16;22.30;99.90
7846;DHT22;3968;51.424;6.788;2023-06-26T04:36:42;22.30;99.90
7846;DHT22;3968;51.424;6.788;2023-06-26T04:39:13;23.10;99.90
7846;DHT22;3968;51.424;6.788;2023-06-26T04:44:06;22.50;99.90
7846;DHT22;3968;51.424;6.788;2023-06-26T04:48:58;22.80;99.90
7846;DHT22;3968;51.424;6.788;2023-06-26T04:51:24;20.80;99.90
7846;DHT22;3968;51.424;6.788;2023-06-26T04:53:52;22.80;99.90
7846;DHT22;3968;51.424;6.788;2023-06-26T04:56:18;22.50;99.90
7846;DHT22;3968;51.424;6.788;2023-06-26T05:08:28;23.20;99.90
7846;DHT22;3968;51.424;6.788;2023-06-26T05:15:50;22.60;99.90
7846;DHT22;3968;51.424;6.788;2023-06-26T05:23:11;22.80;99.90
7846;DHT22;3968;51.424;6.788;2023-06-26T05:25:37;22.90;99.90
7846;DHT22;3968;51.424;6.788;2023-06-26T05:28:03;22.90;99.90
7846;DHT22;3968;51.424;6.788;2023-06-26T05:30:31;22.90;99.90
7846;DHT22;3968;51.424;6.788;2023-06-26T05:33:00;22.80;99.90
7846;DHT22;3968;51.424;6.788;2023-06-26T05:35:29;22.70;99.90
7846;DHT22;3968;51.424;6.788;2023-06-26T05:37:56;22.60;99.90
7846;DHT22;3968;51.424;6.788;2023-06-26T05:40:22;23.00;99.90
7846;DHT22;3968;51.424;6.788;2023-06-26T05:42:48;22.80;99.90
7846;DHT22;3968;51.424;6.788;2023-06-26T05:45:14;23.00;99.90
7846;DHT22;3968;51.424;6.788;2023-06-26T05:47:40;22.50;99.90
7846;DHT22;3968;51.424;6.788;2023-06-26T05:50:08;22.60;99.90
7846;DHT22;3968;51.424;6.788;2023-06-26T05:52:34;23.30;99.90
7846;DHT22;3968;51.424;6.788;2023-06-26T05:55:00;23.10;99.90
7846;DHT22;3968;51.424;6.788;2023-06-26T05:57:27;22.80;99.90
7846;DHT22;3968;51.424;6.788;2023-06-26T05:59:54;23.10;99.90
7846;DHT22;3968;51.424;6.788;2023-06-26T06:04:46;22.30;99.90
7846;DHT22;3968;51.424;6.788;2023-06-26T06:07:12;22.90;99.90
7846;DHT22;3968;51.424;6.788;2023-06-26T06:12:07;22.90;99.90
7846;DHT22;3968;51.424;6.788;2023-06-26T06:14:34;23.00;99.90
7846;DHT22;3968;51.424;6.788;2023-06-26T06:19:25;22.60;99.90
7846;DHT22;3968;51.424;6.788;2023-06-26T06:21:51;22.50;99.90
7846;DHT22;3968;51.424;6.788;2023-06-26T06:24:16;22.80;99.90
7846;DHT22;3968;51.424;6.788;2023-06-26T06:29:08;22.70;99.90
7846;DHT22;3968;51.424;6.788;2023-06-26T06:41:19;22.70;99.90
7846;DHT22;3968;51.424;6.788;2023-06-26T06:55:55;22.90;99.90
7846;DHT22;3968;51.424;6.788;2023-06-26T07:00:48;23.20;99.90
7846;DHT22;3968;51.424;6.788;2023-06-26T07:03:14;23.30;99.90
7846;DHT22;3968;51.424;6.788;2023-06-26T07:05:41;23.10;99.90
7846;DHT22;3968;51.424;6.788;2023-06-26T07:13:00;23.30;99.90
7846;DHT22;3968;51.424;6.788;2023-06-26T07:20:17;23.00;99.90
7846;DHT22;3968;51.424;6.788;2023-06-26T07:25:10;23.30;99.90
7846;DHT22;3968;51.424;6.788;2023-06-26T07:27:40;23.40;99.90
7846;DHT22;3968;51.424;6.788;2023-06-26T07:30:07;23.30;99.90
7846;DHT22;3968;51.424;6.788;2023-06-26T07:32:34;23.10;99.90
7846;DHT22;3968;51.424;6.788;2023-06-26T07:35:00;23.10;99.90
7846;DHT22;3968;51.424;6.788;2023-06-26T07:39:51;23.80;99.90
7846;DHT22;3968;51.424;6.788;2023-06-26T07:42:17;23.80;99.90
7846;DHT22;3968;51.424;6.788;2023-06-26T07:47:09;23.40;99.90
7846;DHT22;3968;51.424;6.788;2023-06-26T07:49:35;23.30;99.90
7846;DHT22;3968;51.424;6.788;2023-06-26T07:52:01;23.60;99.90
7846;DHT22;3968;51.424;6.788;2023-06-26T07:56:57;23.50;99.90
7846;DHT22;3968;51.424;6.788;2023-06-26T07:59:24;23.90;99.90
7846;DHT22;3968;51.424;6.788;2023-06-26T08:01:51;23.70;99.90
7846;DHT22;3968;51.424;6.788;2023-06-26T08:04:21;23.80;99.90
7846;DHT22;3968;51.424;6.788;2023-06-26T08:06:49;24.00;99.90
7846;DHT22;3968;51.424;6.788;2023-06-26T08:11:40;23.70;99.90
7846;DHT22;3968;51.424;6.788;2023-06-26T08:14:06;23.80;99.90
7846;DHT22;3968;51.424;6.788;2023-06-26T08:16:32;23.80;99.90
7846;DHT22;3968;51.424;6.788;2023-06-26T08:18:58;23.80;99.90
7846;DHT22;3968;51.424;6.788;2023-06-26T08:21:23;24.20;99.90
7846;DHT22;3968;51.424;6.788;2023-06-26T08:28:41;23.80;99.90
7846;DHT22;3968;51.424;6.788;2023-06-26T08:38:24;23.50;99.90
7846;DHT22;3968;51.424;6.788;2023-06-26T08:40:50;23.90;99.90
7846;DHT22;3968;51.424;6.788;2023-06-26T08:45:42;23.90;99.90
7846;DHT22;3968;51.424;6.788;2023-06-26T08:48:08;24.10;99.90
7846;DHT22;3968;51.424;6.788;2023-06-26T08:50:35;24.20;99.90
7846;DHT22;3968;51.424;6.788;2023-06-26T08:55:58;23.60;99.90
7846;DHT22;3968;51.424;6.788;2023-06-26T08:58:24;23.70;99.90
7846;DHT22;3968;51.424;6.788;2023-06-26T09:00:50;24.20;99.90
7846;DHT22;3968;51.424;6.788;2023-06-26T09:03:17;24.20;99.90
7846;DHT22;3968;51.424;6.788;2023-06-26T09:05:42;24.10;99.90
7846;DHT22;3968;51.424;6.788;2023-06-26T09:08:08;24.00;99.90
7846;DHT22;3968;51.424;6.788;2023-06-26T09:13:00;23.90;99.90
7846;DHT22;3968;51.424;6.788;2023-06-26T09:15:37;24.60;99.90
7846;DHT22;3968;51.424;6.788;2023-06-26T09:18:05;24.30;99.90
7846;DHT22;3968;51.424;6.788;2023-06-26T09:20:31;23.90;99.90
7846;DHT22;3968;51.424;6.788;2023-06-26T09:22:59;24.20;99.90
7846;DHT22;3968;51.424;6.788;2023-06-26T09:25:25;24.40;99.90
7846;DHT22;3968;51.424;6.788;2023-06-26T09:27:50;24.70;99.90
7846;DHT22;3968;51.424;6.788;2023-06-26T09:30:19;24.60;99.90
7846;DHT22;3968;51.424;6.788;2023-06-26T09:32:45;24.30;99.90
7846;DHT22;3968;51.424;6.788;2023-06-26T09:40:04;24.50;99.90
7846;DHT22;3968;51.424;6.788;2023-06-26T09:42:30;24.50;99.90
7846;DHT22;3968;51.424;6.788;2023-06-26T09:44:56;24.80;99.90
7846;DHT22;3968;51.424;6.788;2023-06-26T09:47:23;24.20;99.90
7846;DHT22;3968;51.424;6.788;2023-06-26T09:49:48;24.60;99.90
7846;DHT22;3968;51.424;6.788;2023-06-26T09:52:16;24.30;99.90
7846;DHT22;3968;51.424;6.788;2023-06-26T09:54:43;24.40;99.90
7846;DHT22;3968;51.424;6.788;2023-06-26T09:57:17;24.50;99.90
7846;DHT22;3968;51.424;6.788;2023-06-26T09:59:44;24.80;99.90
7846;DHT22;3968;51.424;6.788;2023-06-26T10:02:11;24.70;99.90
7846;DHT22;3968;51.424;6.788;2023-06-26T10:04:37;24.80;99.90
7846;DHT22;3968;51.424;6.788;2023-06-26T10:07:10;25.20;99.90
7846;DHT22;3968;51.424;6.788;2023-06-26T10:09:40;25.10;99.90
7846;DHT22;3968;51.424;6.788;2023-06-26T10:12:10;25.20;93.00
7846;DHT22;3968;51.424;6.788;2023-06-26T10:14:41;25.60;99.90
7846;DHT22;3968;51.424;6.788;2023-06-26T10:17:10;25.30;98.40
7846;DHT22;3968;51.424;6.788;2023-06-26T10:19:37;25.10;95.90
7846;DHT22;3968;51.424;6.788;2023-06-26T10:24:32;25.10;90.00
7846;DHT22;3968;51.424;6.788;2023-06-26T10:27:14;25.00;92.40
7846;DHT22;3968;51.424;6.788;2023-06-26T10:29:43;25.50;67.40
7846;DHT22;3968;51.424;6.788;2023-06-26T10:32:12;25.60;93.70
7846;DHT22;3968;51.424;6.788;2023-06-26T10:34:40;25.80;92.90
7846;DHT22;3968;51.424;6.788;2023-06-26T10:37:05;26.20;76.80
7846;DHT22;3968;51.424;6.788;2023-06-26T10:44:42;25.20;51.60
7846;DHT22;3968;51.424;6.788;2023-06-26T10:47:09;25.40;80.20
7846;DHT22;3968;51.424;6.788;2023-06-26T10:49:36;25.20;53.20
7846;DHT22;3968;51.424;6.788;2023-06-26T10:52:03;25.10;79.50
7846;DHT22;3968;51.424;6.788;2023-06-26T10:54:30;25.90;73.00
7846;DHT22;3968;51.424;6.788;2023-06-26T10:56:56;25.30;65.30
7846;DHT22;3968;51.424;6.788;2023-06-26T10:59:25;25.40;43.20
7846;DHT22;3968;51.424;6.788;2023-06-26T11:01:58;25.10;41.30
7846;DHT22;3968;51.424;6.788;2023-06-26T11:04:44;24.90;43.40
7846;DHT22;3968;51.424;6.788;2023-06-26T11:12:40;25.10;45.90
7846;DHT22;3968;51.424;6.788;2023-06-26T11:17:36;25.00;34.80
7846;DHT22;3968;51.424;6.788;2023-06-26T11:20:05;25.20;32.00
7846;DHT22;3968;51.424;6.788;2023-06-26T11:22:35;25.20;33.30
7846;DHT22;3968;51.424;6.788;2023-06-26T11:25:01;25.50;38.50
7846;DHT22;3968;51.424;6.788;2023-06-26T11:32:26;25.50;34.90
7846;DHT22;3968;51.424;6.788;2023-06-26T11:34:53;25.10;51.10
7846;DHT22;3968;51.424;6.788;2023-06-26T11:37:20;25.30;28.30
7846;DHT22;3968;51.424;6.788;2023-06-26T11:39:46;25.50;47.30
7846;DHT22;3968;51.424;6.788;2023-06-26T11:44:41;25.30;25.30
7846;DHT22;3968;51.424;6.788;2023-06-26T11:49:34;24.80;32.50
7846;DHT22;3968;51.424;6.788;2023-06-26T11:52:02;24.80;20.90
7846;DHT22;3968;51.424;6.788;2023-06-26T11:56:58;24.90;23.60
7846;DHT22;3968;51.424;6.788;2023-06-26T11:59:32;25.00;25.60
7846;DHT22;3968;51.424;6.788;2023-06-26T12:04:24;24.60;45.60
7846;DHT22;3968;51.424;6.788;2023-06-26T12:06:51;25.20;39.80
7846;DHT22;3968;51.424;6.788;2023-06-26T12:09:21;25.00;35.40
7846;DHT22;3968;51.424;6.788;2023-06-26T12:11:48;24.70;16.60
7846;DHT22;3968;51.424;6.788;2023-06-26T12:14:14;25.30;34.70
7846;DHT22;3968;51.424;6.788;2023-06-26T12:19:07;24.80;29.40
7846;DHT22;3968;51.424;6.788;2023-06-26T12:24:16;25.20;12.10
7846;DHT22;3968;51.424;6.788;2023-06-26T12:26:44;25.60;28.80
7846;DHT22;3968;51.424;6.788;2023-06-26T12:29:15;25.40;12.20
7846;DHT22;3968;51.424;6.788;2023-06-26T12:31:44;25.50;29.90
7846;DHT22;3968;51.424;6.788;2023-06-26T12:34:14;25.50;16.10
7846;DHT22;3968;51.424;6.788;2023-06-26T12:36:47;25.40;13.20
7846;DHT22;3968;51.424;6.788;2023-06-26T12:39:21;25.60;29.80
7846;DHT22;3968;51.424;6.788;2023-06-26T12:42:02;25.60;13.20
7846;DHT22;3968;51.424;6.788;2023-06-26T12:44:29;25.90;13.30
7846;DHT22;3968;51.424;6.788;2023-06-26T12:47:00;25.10;29.10
7846;DHT22;3968;51.424;6.788;2023-06-26T12:49:39;25.20;11.30
7846;DHT22;3968;51.424;6.788;2023-06-26T12:52:14;24.90;27.80
7846;DHT22;3968;51.424;6.788;2023-06-26T12:54:42;24.90;27.70
7846;DHT22;3968;51.424;6.788;2023-06-26T12:57:09;25.50;12.90
7846;DHT22;3968;51.424;6.788;2023-06-26T12:59:37;25.50;27.20
7846;DHT22;3968;51.424;6.788;2023-06-26T13:04:29;25.10;9.70
7846;DHT22;3968;51.424;6.788;2023-06-26T13:06:55;25.20;26.60
7846;DHT22;3968;51.424;6.788;2023-06-26T13:09:22;25.10;26.10
7846;DHT22;3968;51.424;6.788;2023-06-26T13:14:15;25.00;10.90
7846;DHT22;3968;51.424;6.788;2023-06-26T13:21:36;25.20;8.90
7846;DHT22;3968;51.424;6.788;2023-06-26T13:24:02;25.40;21.00
7846;DHT22;3968;51.424;6.788;2023-06-26T13:28:55;25.70;24.80
7846;DHT22;3968;51.424;6.788;2023-06-26T13:31:21;25.40;24.50
7846;DHT22;3968;51.424;6.788;2023-06-26T13:33:47;25.30;24.40
7846;DHT22;3968;51.424;6.788;2023-06-26T13:41:10;26.20;9.30
7846;DHT22;3968;51.424;6.788;2023-06-26T13:43:36;26.30;14.50
7846;DHT22;3968;51.424;6.788;2023-06-26T13:46:02;26.10;24.70
7846;DHT22;3968;51.424;6.788;2023-06-26T13:48:28;25.60;9.10
7846;DHT22;3968;51.424;6.788;2023-06-26T13:50:54;25.60;16.70
7846;DHT22;3968;51.424;6.788;2023-06-26T13:53:22;25.20;22.30
7846;DHT22;3968;51.424;6.788;2023-06-26T13:55:48;25.90;23.20
7846;DHT22;3968;51.424;6.788;2023-06-26T14:00:40;26.10;24.50
7846;DHT22;3968;51.424;6.788;2023-06-26T14:03:07;26.10;8.30
7846;DHT22;3968;51.424;6.788;2023-06-26T14:05:37;26.10;9.50
7846;DHT22;3968;51.424;6.788;2023-06-26T14:08:04;26.20;10.70
7846;DHT22;3968;51.424;6.788;2023-06-26T14:12:58;26.30;23.30
7846;DHT22;3968;51.424;6.788;2023-06-26T14:17:50;25.40;20.70
7846;DHT22;3968;51.424;6.788;2023-06-26T14:20:16;25.90;23.20
7846;DHT22;3968;51.424;6.788;2023-06-26T14:22:43;25.60;23.00
7846;DHT22;3968;51.424;6.788;2023-06-26T14:25:10;25.80;10.10
7846;DHT22;3968;51.424;6.788;2023-06-26T14:27:36;25.70;8.60
7846;DHT22;3968;51.424;6.788;2023-06-26T14:30:03;26.00;23.60
7846;DHT22;3968;51.424;6.788;2023-06-26T14:32:29;26.20;15.40
7846;DHT22;3968;51.424;6.788;2023-06-26T14:34:55;26.10;20.00
7846;DHT22;3968;51.424;6.788;2023-06-26T14:39:47;26.00;21.90
7846;DHT22;3968;51.424;6.788;2023-06-26T14:44:38;25.70;22.30
7846;DHT22;3968;51.424;6.788;2023-06-26T14:47:04;25.70;15.80
7846;DHT22;3968;51.424;6.788;2023-06-26T14:49:30;25.20;14.40
7846;DHT22;3968;51.424;6.788;2023-06-26T14:56:48;25.40;21.00
7846;DHT22;3968;51.424;6.788;2023-06-26T14:59:13;25.20;20.20
7846;DHT22;3968;51.424;6.788;2023-06-26T15:01:39;25.30;16.30
7846;DHT22;3968;51.424;6.788;2023-06-26T15:04:06;25.60;2.10
7846;DHT22;3968;51.424;6.788;2023-06-26T15:06:32;25.90;18.40
7846;DHT22;3968;51.424;6.788;2023-06-26T15:08:58;25.80;18.30
7846;DHT22;3968;51.424;6.788;2023-06-26T15:13:49;26.00;16.60
7846;DHT22;3968;51.424;6.788;2023-06-26T15:16:15;26.00;20.20
7846;DHT22;3968;51.424;6.788;2023-06-26T15:21:07;25.20;9.10
7846;DHT22;3968;51.424;6.788;2023-06-26T15:23:36;25.20;7.10
7846;DHT22;3968;51.424;6.788;2023-06-26T15:26:01;25.20;16.60
7846;DHT22;3968;51.424;6.788;2023-06-26T15:40:37;24.80;22.60
7846;DHT22;3968;51.424;6.788;2023-06-26T15:43:03;25.10;23.70
7846;DHT22;3968;51.424;6.788;2023-06-26T15:45:31;24.20;23.50
7846;DHT22;3968;51.424;6.788;2023-06-26T15:47:57;24.20;24.00
7846;DHT22;3968;51.424;6.788;2023-06-26T15:52:49;24.80;26.80
7846;DHT22;3968;51.424;6.788;2023-06-26T15:55:15;24.70;26.00
7846;DHT22;3968;51.424;6.788;2023-06-26T16:00:07;24.50;12.90
7846;DHT22;3968;51.424;6.788;2023-06-26T16:02:33;24.10;25.10
7846;DHT22;3968;51.424;6.788;2023-06-26T16:05:00;24.00;10.00
7846;DHT22;3968;51.424;6.788;2023-06-26T16:07:26;24.30;25.00
7846;DHT22;3968;51.424;6.788;2023-06-26T16:14:46;24.40;26.20
7846;DHT22;3968;51.424;6.788;2023-06-26T16:17:12;24.10;26.80
7846;DHT22;3968;51.424;6.788;2023-06-26T16:19:37;24.50;26.80
7846;DHT22;3968;51.424;6.788;2023-06-26T16:22:03;24.20;12.10
7846;DHT22;3968;51.424;6.788;2023-06-26T16:34:14;23.80;29.20
7846;DHT22;3968;51.424;6.788;2023-06-26T16:36:41;23.70;29.50
7846;DHT22;3968;51.424;6.788;2023-06-26T16:39:06;23.90;29.50
7846;DHT22;3968;51.424;6.788;2023-06-26T16:41:32;23.40;24.00
7846;DHT22;3968;51.424;6.788;2023-06-26T16:51:15;23.30;27.20
7846;DHT22;3968;51.424;6.788;2023-06-26T16:58:33;23.00;19.30
7846;DHT22;3968;51.424;6.788;2023-06-26T17:00:59;23.20;29.40
7846;DHT22;3968;51.424;6.788;2023-06-26T17:05:51;23.10;26.70
7846;DHT22;3968;51.424;6.788;2023-06-26T17:08:17;23.10;21.80
7846;DHT22;3968;51.424;6.788;2023-06-26T17:18:03;22.90;25.10
7846;DHT22;3968;51.424;6.788;2023-06-26T17:20:29;23.10;16.90
7846;DHT22;3968;51.424;6.788;2023-06-26T17:22:56;22.70;24.40
7846;DHT22;3968;51.424;6.788;2023-06-26T17:25:24;22.30;17.30
7846;DHT22;3968;51.424;6.788;2023-06-26T17:32:42;24.50;15.30
7846;DHT22;3968;51.424;6.788;2023-06-26T17:35:08;22.60;15.60
7846;DHT22;3968;51.424;6.788;2023-06-26T17:52:10;23.40;25.00
7846;DHT22;3968;51.424;6.788;2023-06-26T17:54:35;23.60;25.20
7846;DHT22;3968;51.424;6.788;2023-06-26T17:59:27;23.40;25.00
7846;DHT22;3968;51.424;6.788;2023-06-26T18:04:20;23.20;24.30
7846;DHT22;3968;51.424;6.788;2023-06-26T18:06:46;23.20;23.60
7846;DHT22;3968;51.424;6.788;2023-06-26T18:09:12;22.90;22.90
7846;DHT22;3968;51.424;6.788;2023-06-26T18:11:38;22.70;22.40
7846;DHT22;3968;51.424;6.788;2023-06-26T18:14:04;23.10;22.90
7846;DHT22;3968;51.424;6.788;2023-06-26T18:16:30;23.10;23.70
7846;DHT22;3968;51.424;6.788;2023-06-26T18:18:57;22.90;22.80
7846;DHT22;3968;51.424;6.788;2023-06-26T18:21:24;23.00;13.20
7846;DHT22;3968;51.424;6.788;2023-06-26T18:23:51;23.10;23.80
7846;DHT22;3968;51.424;6.788;2023-06-26T18:26:17;23.00;23.50
7846;DHT22;3968;51.424;6.788;2023-06-26T18:28:43;23.00;24.30
7846;DHT22;3968;51.424;6.788;2023-06-26T18:31:09;23.10;24.70
7846;DHT22;3968;51.424;6.788;2023-06-26T18:36:04;22.90;25.00
7846;DHT22;3968;51.424;6.788;2023-06-26T18:45:51;22.10;23.00
7846;DHT22;3968;51.424;6.788;2023-06-26T18:48:17;22.40;22.50
7846;DHT22;3968;51.424;6.788;2023-06-26T18:50:43;22.40;14.50
7846;DHT22;3968;51.424;6.788;2023-06-26T18:53:09;22.40;14.80
7846;DHT22;3968;51.424;6.788;2023-06-26T18:55:35;22.40;14.40
7846;DHT22;3968;51.424;6.788;2023-06-26T18:58:01;22.30;14.80
7846;DHT22;3968;51.424;6.788;2023-06-26T19:00:28;22.30;13.90
7846;DHT22;3968;51.424;6.788;2023-06-26T19:02:53;22.20;13.30
7846;DHT22;3968;51.424;6.788;2023-06-26T19:05:19;22.20;12.80
7846;DHT22;3968;51.424;6.788;2023-06-26T19:07:46;22.20;13.50
7846;DHT22;3968;51.424;6.788;2023-06-26T19:10:12;22.20;13.80
7846;DHT22;3968;51.424;6.788;2023-06-26T19:12:45;22.20;14.00
7846;DHT22;3968;51.424;6.788;2023-06-26T19:15:15;22.10;13.70
7846;DHT22;3968;51.424;6.788;2023-06-26T19:17:40;22.00;13.80
7846;DHT22;3968;51.424;6.788;2023-06-26T19:20:06;21.90;14.10
7846;DHT22;3968;51.424;6.788;2023-06-26T19:22:32;21.80;14.80
7846;DHT22;3968;51.424;6.788;2023-06-26T19:24:58;21.70;15.30
7846;DHT22;3968;51.424;6.788;2023-06-26T19:27:24;21.70;15.40
7846;DHT22;3968;51.424;6.788;2023-06-26T19:29:50;21.70;15.80
7846;DHT22;3968;51.424;6.788;2023-06-26T19:32:16;21.70;15.70
7846;DHT22;3968;51.424;6.788;2023-06-26T19:34:42;21.70;15.90
7846;DHT22;3968;51.424;6.788;2023-06-26T19:37:07;21.60;16.00
7846;DHT22;3968;51.424;6.788;2023-06-26T19:39:33;21.60;16.50
7846;DHT22;3968;51.424;6.788;2023-06-26T19:41:59;21.50;16.90
7846;DHT22;3968;51.424;6.788;2023-06-26T19:44:24;21.50;17.00
7846;DHT22;3968;51.424;6.788;2023-06-26T19:46:53;21.40;17.20
7846;DHT22;3968;51.424;6.788;2023-06-26T19:49:18;21.30;17.90
7846;DHT22;3968;51.424;6.788;2023-06-26T19:51:44;21.30;18.40
7846;DHT22;3968;51.424;6.788;2023-06-26T19:54:10;21.30;18.40
7846;DHT22;3968;51.424;6.788;2023-06-26T19:56:36;21.30;18.90
7846;DHT22;3968;51.424;6.788;2023-06-26T19:59:01;21.20;19.50
7846;DHT22;3968;51.424;6.788;2023-06-26T20:01:28;21.20;19.60
7846;DHT22;3968;51.424;6.788;2023-06-26T20:03:54;21.20;19.60
7846;DHT22;3968;51.424;6.788;2023-06-26T20:06:20;21.20;19.90
7846;DHT22;3968;51.424;6.788;2023-06-26T20:08:47;21.20;19.90
7846;DHT22;3968;51.424;6.788;2023-06-26T20:11:13;21.10;20.60
7846;DHT22;3968;51.424;6.788;2023-06-26T20:13:39;21.10;21.30
7846;DHT22;3968;51.424;6.788;2023-06-26T20:16:05;21.10;22.00
7846;DHT22;3968;51.424;6.788;2023-06-26T20:18:30;21.00;20.80
7846;DHT22;3968;51.424;6.788;2023-06-26T20:20:56;20.90;20.50
7846;DHT22;3968;51.424;6.788;2023-06-26T20:23:22;20.90;21.00
7846;DHT22;3968;51.424;6.788;2023-06-26T20:25:48;20.90;20.90
7846;DHT22;3968;51.424;6.788;2023-06-26T20:28:13;20.90;21.90
7846;DHT22;3968;51.424;6.788;2023-06-26T20:30:39;20.90;21.50
7846;DHT22;3968;51.424;6.788;2023-06-26T20:33:05;20.90;20.90
7846;DHT22;3968;51.424;6.788;2023-06-26T20:35:30;20.90;20.90
7846;DHT22;3968;51.424;6.788;2023-06-26T20:37:56;20.90;20.40
7846;DHT22;3968;51.424;6.788;2023-06-26T20:40:22;20.80;20.70
7846;DHT22;3968;51.424;6.788;2023-06-26T20:42:48;20.70;21.20
7846;DHT22;3968;51.424;6.788;2023-06-26T20:45:14;20.70;21.50
7846;DHT22;3968;51.424;6.788;2023-06-26T20:47:42;20.70;21.80
7846;DHT22;3968;51.424;6.788;2023-06-26T20:50:09;20.70;22.10
7846;DHT22;3968;51.424;6.788;2023-06-26T20:52:38;20.70;22.30
7846;DHT22;3968;51.424;6.788;2023-06-26T20:55:04;20.70;23.10
7846;DHT22;3968;51.424;6.788;2023-06-26T20:57:30;20.60;22.90
7846;DHT22;3968;51.424;6.788;2023-06-26T21:02:22;20.50;23.00
7846;DHT22;3968;51.424;6.788;2023-06-26T21:04:47;20.50;23.70
7846;DHT22;3968;51.424;6.788;2023-06-26T21:07:13;20.50;24.10
7846;DHT22;3968;51.424;6.788;2023-06-26T21:09:39;20.50;25.00
7846;DHT22;3968;51.424;6.788;2023-06-26T21:12:05;20.50;25.00
7846;DHT22;3968;51.424;6.788;2023-06-26T21:14:31;20.50;25.20
7846;DHT22;3968;51.424;6.788;2023-06-26T21:16:57;20.40;25.60
7846;DHT22;3968;51.424;6.788;2023-06-26T21:19:23;20.40;26.00
7846;DHT22;3968;51.424;6.788;2023-06-26T21:21:54;20.40;26.10
7846;DHT22;3968;51.424;6.788;2023-06-26T21:24:20;20.30;27.00
7846;DHT22;3968;51.424;6.788;2023-06-26T21:26:46;20.40;39.90
7846;DHT22;3968;51.424;6.788;2023-06-26T21:29:11;20.50;41.10
7846;DHT22;3968;51.424;6.788;2023-06-26T21:31:37;20.60;43.90
7846;DHT22;3968;51.424;6.788;2023-06-26T21:34:02;20.80;46.20
7846;DHT22;3968;51.424;6.788;2023-06-26T21:36:28;20.90;49.50
7846;DHT22;3968;51.424;6.788;2023-06-26T21:38:54;21.10;48.00
7846;DHT22;3968;51.424;6.788;2023-06-26T21:41:19;21.20;47.30
7846;DHT22;3968;51.424;6.788;2023-06-26T21:43:45;21.40;46.40
7846;DHT22;3968;51.424;6.788;2023-06-26T21:46:11;21.50;40.90
7846;DHT22;3968;51.424;6.788;2023-06-26T21:48:36;21.50;40.30
7846;DHT22;3968;51.424;6.788;2023-06-26T21:51:04;21.50;39.30
7846;DHT22;3968;51.424;6.788;2023-06-26T21:53:29;21.60;38.60
7846;DHT22;3968;51.424;6.788;2023-06-26T21:55:55;21.60;39.10
7846;DHT22;3968;51.424;6.788;2023-06-26T21:58:21;21.70;40.70
7846;DHT22;3968;51.424;6.788;2023-06-26T22:00:47;21.60;38.50
7846;DHT22;3968;51.424;6.788;2023-06-26T22:03:14;21.60;39.90
7846;DHT22;3968;51.424;6.788;2023-06-26T22:05:39;21.50;37.50
7846;DHT22;3968;51.424;6.788;2023-06-26T22:08:05;21.50;39.60
7846;DHT22;3968;51.424;6.788;2023-06-26T22:10:33;21.60;41.40
7846;DHT22;3968;51.424;6.788;2023-06-26T22:13:00;21.50;40.70
7846;DHT22;3968;51.424;6.788;2023-06-26T22:15:26;21.60;42.90
7846;DHT22;3968;51.424;6.788;2023-06-26T22:17:53;21.70;42.20
7846;DHT22;3968;51.424;6.788;2023-06-26T22:20:20;21.70;39.30
7846;DHT22;3968;51.424;6.788;2023-06-26T22:22:46;21.70;38.20
7846;DHT22;3968;51.424;6.788;2023-06-26T22:25:12;21.60;40.90
7846;DHT22;3968;51.424;6.788;2023-06-26T22:27:48;21.70;43.10
7846;DHT22;3968;51.424;6.788;2023-06-26T22:30:16;21.80;40.70
7846;DHT22;3968;51.424;6.788;2023-06-26T22:32:42;21.80;41.60
7846;DHT22;3968;51.424;6.788;2023-06-26T22:35:10;21.80;43.50
7846;DHT22;3968;51.424;6.788;2023-06-26T22:37:36;21.80;42.50
7846;DHT22;3968;51.424;6.788;2023-06-26T22:40:02;21.80;40.70
7846;DHT22;3968;51.424;6.788;2023-06-26T22:42:29;21.80;42.30